Time;durP1;ratioP1;P1;durP2;ratioP2;P2;SDS_P1;SDS_P2;PMS_P1;PMS_P2;Temp;Humidity;BMP_temperature;BMP_pressure;BME280_temperature;BME280_humidity;BME280_pressure;Samples;Min_cycle;Max_cycle;Signal;HPM_P1;HPM_P2
2022/07/06 00:04:54;;;;;;;2.92;1.40;;;;;;;16.42;84.23;100531.91;10531899;28;20119;-82
2022/07/06 00:09:55;;;;;;;6.20;1.63;;;;;;;16.29;89.63;100510.44;10533325;28;20115;-82
2022/07/06 00:14:57;;;;;;;3.40;1.60;;;;;;;16.46;87.39;100506.97;10550717;28;20493;-82
2022/07/06 00:19:59;;;;;;;2.55;1.60;;;;;;;16.51;86.90;100509.38;10551129;28;20048;-81
2022/07/06 00:25:00;;;;;;;1.90;1.45;;;;;;;16.31;88.00;100483.84;10550191;28;20131;-81
2022/07/06 00:30:02;;;;;;;2.95;1.50;;;;;;;16.61;87.50;100511.53;10558854;28;20036;-81
2022/07/06 00:35:05;;;;;;;3.20;1.50;;;;;;;16.26;88.10;100507.06;10560012;28;20048;-82
2022/07/06 00:40:07;;;;;;;2.90;1.38;;;;;;;16.15;90.46;100491.66;10561833;28;20040;-81
2022/07/06 00:45:10;;;;;;;1.50;1.35;;;;;;;16.35;87.45;100494.22;10543933;28;20115;-81
2022/07/06 00:50:14;;;;;;;2.25;1.55;;;;;;;16.56;85.98;100483.50;10542576;28;20040;-81
2022/07/06 00:55:18;;;;;;;2.70;1.45;;;;;;;16.56;88.20;100473.75;10557700;28;20122;-81
2022/07/06 01:00:23;;;;;;;1.65;1.45;;;;;;;16.30;89.10;100459.09;10520232;28;20048;-81
2022/07/06 01:05:25;;;;;;;2.53;1.50;;;;;;;16.21;90.55;100474.63;10535678;28;20059;-81
2022/07/06 01:10:26;;;;;;;1.60;1.50;;;;;;;16.12;91.14;100482.06;10552581;28;20062;-80
2022/07/06 01:15:28;;;;;;;2.75;1.95;;;;;;;16.26;87.46;100483.19;10554254;28;20094;-80
2022/07/06 01:20:30;;;;;;;2.50;1.60;;;;;;;16.07;91.71;100484.09;10547839;28;20032;-80
2022/07/06 01:25:32;;;;;;;2.20;2.00;;;;;;;16.21;89.23;100482.56;10582656;28;20041;-81
2022/07/06 01:30:34;;;;;;;5.18;3.63;;;;;;;16.03;91.71;100463.94;10599398;28;20051;-81
2022/07/06 01:35:37;;;;;;;3.85;3.50;;;;;;;15.83;93.45;100453.41;10594976;28;20108;-81
2022/07/06 01:40:39;;;;;;;2.33;2.13;;;;;;;16.08;90.36;100461.06;10560653;28;20072;-81
2022/07/06 01:45:41;;;;;;;5.57;2.42;;;;;;;16.14;90.48;100461.63;10554584;28;20050;-81
2022/07/06 01:50:43;;;;;;;2.45;2.03;;;;;;;16.02;94.10;100453.38;10534181;28;20044;-81
2022/07/06 01:55:45;;;;;;;2.47;2.28;;;;;;;16.23;89.82;100451.50;10535714;28;20564;-80
2022/07/06 02:00:47;;;;;;;2.78;1.77;;;;;;;16.16;89.88;100458.91;10535082;28;20412;-80
2022/07/06 02:05:49;;;;;;;3.20;2.00;;;;;;;16.08;88.96;100453.97;10533534;28;20054;-81
2022/07/06 02:10:50;;;;;;;5.85;1.80;;;;;;;15.93;90.05;100457.34;10552314;28;20032;-81
2022/07/06 02:15:53;;;;;;;2.78;2.05;;;;;;;15.88;90.94;100451.41;10533194;28;20043;-81
2022/07/06 02:20:55;;;;;;;2.25;2.05;;;;;;;16.01;90.74;100449.03;10531561;28;20040;-80
2022/07/06 02:25:56;;;;;;;2.47;1.73;;;;;;;15.86;93.11;100454.13;10551854;28;20040;-81
2022/07/06 02:30:59;;;;;;;3.10;2.33;;;;;;;15.93;93.31;100449.38;10532098;28;20447;-80
2022/07/06 02:36:02;;;;;;;2.70;2.35;;;;;;;15.72;95.25;100439.81;10533105;28;20094;-80
2022/07/06 02:41:04;;;;;;;4.05;2.20;;;;;;;15.60;93.30;100441.19;10531578;28;20055;-80
2022/07/06 02:46:08;;;;;;;3.33;2.20;;;;;;;15.54;93.53;100447.66;10532837;28;20050;-80
2022/07/06 02:51:10;;;;;;;2.80;2.45;;;;;;;15.76;93.27;100449.31;10528835;28;20036;-80
2022/07/06 02:56:12;;;;;;;2.58;2.38;;;;;;;15.74;92.86;100444.09;10555371;28;20044;-81
2022/07/06 03:01:14;;;;;;;4.10;2.50;;;;;;;15.55;93.76;100444.06;10535386;28;20455;-81
2022/07/06 03:06:17;;;;;;;3.10;2.30;;;;;;;15.50;95.70;100459.31;10532370;28;20040;-81
2022/07/06 03:11:19;;;;;;;2.35;2.15;;;;;;;15.39;97.09;100461.56;10533334;28;20036;-81
2022/07/06 03:16:21;;;;;;;2.92;2.20;;;;;;;15.39;97.67;100457.13;10532041;28;20059;-80
2022/07/06 03:21:27;;;;;;;2.85;2.30;;;;;;;15.47;96.31;100462.09;10538844;28;20036;-80
2022/07/06 03:26:29;;;;;;;2.00;1.90;;;;;;;15.50;97.03;100461.97;10544992;28;20565;-80
2022/07/06 03:31:31;;;;;;;2.70;2.20;;;;;;;15.46;97.05;100455.06;10537199;28;20190;-81
2022/07/06 03:36:34;;;;;;;2.35;1.75;;;;;;;15.38;96.63;100467.81;10534821;28;20139;-81
2022/07/06 03:41:40;;;;;;;3.10;2.05;;;;;;;15.32;95.85;100458.34;10533417;28;20060;-81
2022/07/06 03:46:43;;;;;;;2.50;1.80;;;;;;;15.20;93.86;100458.03;10535257;28;20116;-81
2022/07/06 03:51:46;;;;;;;2.25;1.60;;;;;;;15.14;93.63;100460.03;10532367;28;20056;-81
2022/07/06 03:56:49;;;;;;;2.50;1.40;;;;;;;15.29;92.83;100466.41;10532607;28;20086;-81
2022/07/06 04:01:52;;;;;;;3.13;1.30;;;;;;;15.29;92.47;100470.88;10532737;28;20505;-81
2022/07/06 04:06:54;;;;;;;6.78;1.40;;;;;;;15.36;91.46;100473.19;10535235;28;20139;-81
2022/07/06 04:11:56;;;;;;;4.30;1.67;;;;;;;15.38;90.76;100476.59;10537470;28;20048;-81
2022/07/06 04:17:51;;;;;;;4.05;2.25;;;;;;;15.34;89.78;100474.16;10533949;28;20077;-81
2022/07/06 04:22:20;;;;;;;2.80;1.90;;;;;;;15.49;91.95;100477.91;10548163;28;20404;-81
2022/07/06 04:27:22;;;;;;;2.60;1.95;;;;;;;15.43;90.05;100483.50;10532570;28;20040;-81
2022/07/06 04:32:24;;;;;;;3.13;2.92;;;;;;;15.40;93.53;100489.78;10530105;28;20044;-82
2022/07/06 04:37:27;;;;;;;4.50;3.40;;;;;;;15.34;95.85;100484.75;10530612;28;20044;-83
2022/07/06 04:42:29;;;;;;;3.13;2.85;;;;;;;15.46;96.00;100494.81;10532753;28;20046;-83
2022/07/06 04:47:34;;;;;;;2.60;2.40;;;;;;;15.70;94.31;100495.53;10536098;28;20093;-81
2022/07/06 04:52:36;;;;;;;3.45;2.72;;;;;;;15.65;92.10;100500.16;10538611;28;20048;-82
2022/07/06 04:57:39;;;;;;;4.53;2.45;;;;;;;15.70;90.11;100500.81;10539703;28;20135;-81
2022/07/06 05:02:41;;;;;;;2.42;2.17;;;;;;;15.91;87.63;100495.47;10578775;28;20055;-81
2022/07/06 05:07:43;;;;;;;4.25;2.70;;;;;;;16.18;83.50;100503.94;10560615;28;20047;-80
2022/07/06 05:12:45;;;;;;;3.15;1.63;;;;;;;16.12;83.39;100503.28;10556411;28;20048;-80
2022/07/06 05:17:48;;;;;;;3.35;1.70;;;;;;;16.59;80.31;100505.44;10557658;28;20036;-80
2022/07/06 05:22:51;;;;;;;3.75;1.63;;;;;;;16.71;80.33;100514.59;10562434;28;20066;-80
2022/07/06 05:27:58;;;;;;;1.52;1.30;;;;;;;16.95;73.42;100523.16;10545608;28;20094;-81
2022/07/06 05:33:01;;;;;;;7.85;1.60;;;;;;;16.74;73.48;100533.06;10546693;28;20040;-81
2022/07/06 05:38:03;;;;;;;1.25;1.02;;;;;;;16.78;73.34;100547.91;10566101;28;20040;-81
2022/07/06 05:43:04;;;;;;;1.95;1.42;;;;;;;17.50;71.61;100551.34;10583594;22;20040;-79
2022/07/06 05:53:27;;;;;;;2.13;1.30;;;;;;;17.82;66.40;100550.53;10574488;28;20040;-82
2022/07/06 05:58:31;;;;;;;3.92;1.33;;;;;;;18.12;66.11;100556.00;10542205;28;20048;-81
2022/07/06 06:03:33;;;;;;;3.08;0.98;;;;;;;18.00;64.70;100561.13;10561256;28;20073;-81
2022/07/06 06:08:37;;;;;;;1.05;0.95;;;;;;;18.34;62.82;100561.00;10576011;28;20039;-82
2022/07/06 06:13:40;;;;;;;3.47;1.00;;;;;;;18.86;63.76;100559.91;10580127;28;20024;-82
2022/07/06 06:18:41;;;;;;;3.22;1.00;;;;;;;18.91;61.28;100568.47;10580451;28;20065;-80
2022/07/06 06:23:43;;;;;;;1.95;1.00;;;;;;;19.14;60.77;100575.13;10578321;28;20059;-81
2022/07/06 06:28:45;;;;;;;2.88;0.88;;;;;;;18.97;60.94;100583.25;10548308;28;20039;-80
2022/07/06 06:33:46;;;;;;;2.72;0.98;;;;;;;18.65;59.94;100585.91;10581910;28;20044;-79
2022/07/06 06:38:48;;;;;;;3.80;1.10;;;;;;;19.28;59.68;100585.81;10562801;28;20059;-79
2022/07/06 06:43:56;;;;;;;5.60;0.77;;;;;;;18.97;58.35;100586.75;10557717;28;20112;-79
2022/07/06 06:49:03;;;;;;;1.35;0.70;;;;;;;19.29;57.96;100584.00;10540267;28;20040;-79
2022/07/06 06:54:04;;;;;;;4.32;0.90;;;;;;;19.18;57.29;100578.47;10543558;28;20062;-80
2022/07/06 06:59:06;;;;;;;5.07;0.88;;;;;;;19.67;57.10;100579.09;10538466;28;20047;-79
2022/07/06 07:04:18;;;;;;;2.25;0.80;;;;;;;19.63;56.24;100583.75;10523216;28;20051;-80
2022/07/06 07:09:19;;;;;;;1.58;0.70;;;;;;;20.59;53.63;100592.03;10558128;28;20342;-79
2022/07/06 07:20:47;;;;;;;1.25;0.60;;;;;;;19.53;53.60;100601.22;10554271;28;20119;-85
2022/07/06 07:26:27;;;;;;;1.67;0.73;;;;;;;19.74;53.19;100599.06;10538184;28;20036;-84
2022/07/06 07:32:22;;;;;;;4.03;1.15;;;;;;;19.53;54.68;100603.03;10536013;28;20040;-83
2022/07/06 07:37:47;;;;;;;6.22;1.15;;;;;;;19.44;52.92;100611.59;10382876;28;20054;-82
2022/07/06 07:42:51;;;;;;;1.92;0.77;;;;;;;18.77;54.04;100611.00;10384655;28;20133;-80
2022/07/06 07:47:53;;;;;;;2.08;0.70;;;;;;;19.33;54.38;100610.38;10369242;28;20045;-80
2022/07/06 07:52:54;;;;;;;1.33;0.70;;;;;;;20.11;51.51;100607.50;10368439;28;20065;-80
2022/07/06 07:57:59;;;;;;;1.65;0.73;;;;;;;20.51;49.56;100610.38;10385984;28;20108;-79
2022/07/06 08:03:01;;;;;;;2.90;0.77;;;;;;;20.13;51.61;100616.25;10384727;28;20038;-80
2022/07/06 08:08:03;;;;;;;1.90;0.68;;;;;;;19.78;51.84;100616.63;10386218;28;20046;-80
2022/07/06 08:13:06;;;;;;;2.25;0.63;;;;;;;19.45;50.90;100611.47;10483782;28;20068;-80
2022/07/06 08:18:09;;;;;;;2.47;0.60;;;;;;;19.03;51.25;100618.38;10554785;28;20115;-80
2022/07/06 08:23:11;;;;;;;1.67;0.70;;;;;;;19.37;51.11;100613.75;10533543;28;20047;-79
2022/07/06 08:28:13;;;;;;;1.98;0.60;;;;;;;19.94;50.08;100615.69;10552063;28;20046;-79
2022/07/06 08:33:14;;;;;;;1.70;0.70;;;;;;;20.48;49.90;100614.06;10551481;28;20235;-80
2022/07/06 08:38:16;;;;;;;2.40;0.70;;;;;;;20.50;46.21;100614.00;10552441;28;20111;-79
2022/07/06 08:43:17;;;;;;;2.67;0.70;;;;;;;20.17;46.95;100618.66;10533289;28;20075;-80
2022/07/06 08:48:22;;;;;;;1.77;0.45;;;;;;;20.66;45.17;100618.22;10534860;28;20127;-80
2022/07/06 08:53:24;;;;;;;3.03;0.80;;;;;;;20.27;45.54;100624.25;10554853;28;20063;-82
2022/07/06 08:58:27;;;;;;;1.38;0.50;;;;;;;20.55;45.41;100618.09;10550771;28;20044;-79
2022/07/06 09:03:29;;;;;;;2.97;0.88;;;;;;;20.70;46.67;100618.03;10547529;28;20044;-79
2022/07/06 09:08:32;;;;;;;1.35;0.52;;;;;;;20.83;45.25;100617.16;10529929;28;20460;-79
2022/07/06 09:13:34;;;;;;;1.80;0.60;;;;;;;20.62;43.32;100624.72;10529260;28;20093;-78
2022/07/06 09:18:39;;;;;;;4.03;0.60;;;;;;;20.97;42.82;100612.72;10546398;28;20040;-80
2022/07/06 09:23:42;;;;;;;1.80;0.73;;;;;;;21.47;43.47;100611.16;10547869;28;20040;-80
2022/07/06 09:28:44;;;;;;;3.30;0.70;;;;;;;21.96;41.10;100619.38;10526967;28;20048;-80
2022/07/06 09:34:01;;;;;;;1.27;0.45;;;;;;;21.46;43.48;100623.69;10529337;28;20113;-79
2022/07/06 09:39:18;;;;;;;1.95;0.57;;;;;;;22.24;40.99;100620.13;10555510;28;20086;-79
2022/07/06 09:44:24;;;;;;;7.25;0.60;;;;;;;22.26;39.59;100620.84;10555896;28;20455;-79
2022/07/06 09:49:26;;;;;;;1.92;0.60;;;;;;;22.02;40.85;100610.03;10555658;28;20040;-80
2022/07/06 09:54:28;;;;;;;1.52;0.45;;;;;;;23.06;39.62;100621.28;10556494;28;20416;-79
2022/07/06 09:59:32;;;;;;;1.77;0.60;;;;;;;22.61;40.19;100611.13;10559650;28;20040;-79
2022/07/06 10:04:34;;;;;;;1.85;0.63;;;;;;;22.30;39.73;100612.50;10558103;28;20447;-80
2022/07/06 10:09:37;;;;;;;2.22;0.70;;;;;;;22.31;40.87;100610.66;10590735;28;20048;-83
2022/07/06 10:14:40;;;;;;;2.15;0.65;;;;;;;22.58;40.52;100599.81;10578391;28;20113;-82
2022/07/06 10:19:46;;;;;;;1.27;0.70;;;;;;;22.22;41.35;100604.16;10575716;28;20047;-84
2022/07/06 10:24:50;;;;;;;2.67;0.68;;;;;;;22.81;40.24;100606.16;10546059;22;20397;-66
2022/07/06 10:29:52;;;;;;;1.73;0.60;;;;;;;22.19;40.36;100606.22;10531188;28;20050;-67
2022/07/06 10:34:54;;;;;;;2.03;0.55;;;;;;;21.81;41.83;100602.53;10547290;28;20074;-68
2022/07/06 10:45:26;;;;;;;2.67;0.60;;;;;;;21.80;40.95;100591.94;10548877;28;20512;-68
2022/07/06 10:50:35;;;;;;;10.50;0.80;;;;;;;21.15;42.54;100588.28;10544187;28;20040;-69
2022/07/06 10:55:39;;;;;;;1.95;0.60;;;;;;;20.98;42.14;100580.53;10546402;28;20040;-69
2022/07/06 11:00:54;;;;;;;1.70;0.50;;;;;;;21.64;42.03;100584.13;10545223;28;20111;-70
2022/07/06 11:05:59;;;;;;;1.98;0.60;;;;;;;22.79;39.69;100590.16;10545087;28;20044;-69
2022/07/06 11:11:18;;;;;;;1.70;0.63;;;;;;;22.73;40.21;100587.97;10545795;28;20032;-68
2022/07/06 11:16:23;;;;;;;2.08;0.47;;;;;;;22.74;40.51;100583.44;10542699;28;20040;-67
2022/07/06 11:21:46;;;;;;;1.30;0.47;;;;;;;22.13;40.44;100596.78;10542355;28;20032;-69
2022/07/06 11:26:49;;;;;;;2.17;0.75;;;;;;;23.01;40.42;100581.41;10544254;28;20052;-68
2022/07/06 11:31:54;;;;;;;2.22;0.80;;;;;;;23.78;35.97;100560.34;10545423;28;20120;-68
2022/07/06 11:37:01;;;;;;;3.08;0.70;;;;;;;23.78;36.95;100573.75;10544193;28;20047;-68
2022/07/06 11:42:06;;;;;;;1.58;0.50;;;;;;;23.66;36.83;100569.34;10556735;22;20504;-73
2022/07/06 11:47:09;;;;;;;1.27;0.40;;;;;;;23.08;37.63;100561.22;10527984;28;20047;-73
2022/07/06 11:52:13;;;;;;;2.15;0.52;;;;;;;22.66;39.00;100576.81;10522650;28;20127;-73
2022/07/06 11:57:16;;;;;;;3.35;0.68;;;;;;;23.30;38.02;100571.19;10514093;28;20054;-74
2022/07/06 12:02:18;;;;;;;2.42;0.60;;;;;;;23.49;39.94;100573.28;10501804;28;20040;-73
2022/07/06 12:07:20;;;;;;;1.60;0.60;;;;;;;23.73;37.42;100549.13;10504353;28;20091;-73
2022/07/06 12:12:23;;;;;;;1.33;0.70;;;;;;;23.81;36.09;100559.22;10505000;28;20116;-74
2022/07/06 12:17:25;;;;;;;2.75;0.75;;;;;;;23.09;35.44;100556.72;10484853;28;20048;-74
2022/07/06 12:22:28;;;;;;;2.33;0.50;;;;;;;22.54;36.86;100550.94;10486443;28;20040;-73
2022/07/06 12:27:33;;;;;;;3.55;0.47;;;;;;;23.34;35.83;100539.63;10502768;28;20508;-73
2022/07/06 12:32:36;;;;;;;2.72;0.40;;;;;;;23.91;35.50;100534.22;10503995;28;20044;-73
2022/07/06 12:37:38;;;;;;;2.03;0.55;;;;;;;23.25;36.93;100546.53;10516063;28;20069;-73
2022/07/06 12:42:47;;;;;;;1.75;0.45;;;;;;;23.36;35.31;100532.28;10543156;28;20036;-74
2022/07/06 12:48:04;;;;;;;2.60;0.77;;;;;;;23.75;34.76;100531.03;10543372;28;20040;-72
2022/07/06 12:53:24;;;;;;;1.15;0.50;;;;;;;23.77;34.06;100523.72;10545946;28;20114;-73
2022/07/06 12:58:26;;;;;;;2.97;0.50;;;;;;;23.82;34.33;100524.22;10543067;28;20046;-73
2022/07/06 13:03:38;;;;;;;1.77;0.40;;;;;;;23.78;35.53;100521.91;10541627;28;20070;-73
2022/07/06 13:08:40;;;;;;;2.08;0.60;;;;;;;23.10;36.49;100532.47;10523817;28;20071;-73
2022/07/06 13:13:45;;;;;;;1.60;0.50;;;;;;;23.49;34.50;100514.25;10526830;28;20048;-73
2022/07/06 13:18:49;;;;;;;1.92;0.52;;;;;;;23.59;34.98;100506.34;10552226;28;20044;-74
2022/07/06 13:23:51;;;;;;;2.03;0.70;;;;;;;23.91;33.46;100517.28;10532326;28;20056;-74
2022/07/06 13:28:53;;;;;;;0.80;0.40;;;;;;;23.67;33.20;100503.94;10551127;28;20046;-74
2022/07/06 13:33:55;;;;;;;1.73;0.50;;;;;;;24.21;33.29;100508.56;10550534;28;20078;-73
2022/07/06 13:38:57;;;;;;;2.13;0.47;;;;;;;23.89;32.94;100498.56;10552496;28;20036;-73
2022/07/06 13:44:03;;;;;;;1.17;0.40;;;;;;;23.53;35.21;100496.09;10550904;28;20040;-74
2022/07/06 13:49:05;;;;;;;2.17;0.50;;;;;;;22.81;34.99;100505.16;10532424;28;20429;-72
2022/07/06 13:54:07;;;;;;;2.45;0.40;;;;;;;22.17;36.36;100504.56;10549920;28;20051;-74
2022/07/06 13:59:08;;;;;;;2.55;0.68;;;;;;;22.90;35.73;100499.13;10551816;28;20046;-73
2022/07/06 14:04:10;;;;;;;2.83;0.50;;;;;;;23.07;35.13;100500.53;10531612;28;20044;-73
2022/07/06 14:09:12;;;;;;;3.03;0.63;;;;;;;22.57;35.24;100496.25;10549252;28;20047;-73
2022/07/06 14:14:13;;;;;;;4.45;0.63;;;;;;;22.46;35.69;100496.22;10550117;28;20068;-73
2022/07/06 14:19:15;;;;;;;2.53;0.50;;;;;;;22.63;35.22;100483.28;10550612;28;20051;-73
2022/07/06 14:24:21;;;;;;;3.60;0.70;;;;;;;22.91;34.53;100483.91;10536002;28;20064;-74
2022/07/06 14:29:27;;;;;;;1.92;0.50;;;;;;;23.48;33.71;100475.00;10551271;28;20047;-73
2022/07/06 14:34:29;;;;;;;3.67;0.57;;;;;;;23.14;33.53;100477.63;10514189;28;20048;-73
2022/07/06 14:39:31;;;;;;;0.82;0.38;;;;;;;23.49;33.68;100475.84;10548346;28;20051;-73
2022/07/06 14:44:33;;;;;;;2.53;0.50;;;;;;;23.45;33.19;100472.56;10531749;28;20097;-73
2022/07/06 14:49:35;;;;;;;1.70;0.50;;;;;;;22.99;33.36;100465.41;10548364;28;20040;-74
2022/07/06 14:54:36;;;;;;;1.83;0.60;;;;;;;22.89;33.82;100464.38;10547948;28;20075;-73
2022/07/06 14:59:38;;;;;;;2.60;0.50;;;;;;;23.25;33.35;100465.22;10547049;28;20489;-74
2022/07/06 15:04:40;;;;;;;1.88;0.65;;;;;;;22.81;34.70;100467.63;10548233;28;20050;-74
2022/07/06 15:09:42;;;;;;;3.88;0.60;;;;;;;23.01;33.48;100460.78;10531781;28;20077;-73
2022/07/06 15:14:44;;;;;;;1.88;0.40;;;;;;;22.77;33.74;100457.25;10546966;28;20499;-75
2022/07/06 15:19:46;;;;;;;1.52;0.40;;;;;;;23.10;33.58;100461.88;10547466;28;20058;-76
2022/07/06 15:24:54;;;;;;;1.27;0.40;;;;;;;23.03;34.17;100456.16;10547560;28;20398;-73
2022/07/06 15:29:56;;;;;;;3.63;0.70;;;;;;;23.10;33.17;100451.16;10529313;28;20105;-74
2022/07/06 15:34:58;;;;;;;1.95;0.55;;;;;;;23.12;33.14;100451.91;10527251;28;20089;-75
2022/07/06 15:40:02;;;;;;;1.40;0.52;;;;;;;23.54;32.87;100450.34;10545610;28;20401;-75
2022/07/06 15:45:05;;;;;;;0.95;0.32;;;;;;;23.96;31.70;100445.25;10545760;28;20055;-74
2022/07/06 15:50:09;;;;;;;5.80;0.65;;;;;;;23.58;32.15;100450.97;10528558;28;20497;-72
2022/07/06 15:55:10;;;;;;;0.70;0.40;;;;;;;23.29;32.71;100443.41;10544712;28;20059;-73
2022/07/06 16:00:13;;;;;;;12.77;1.40;;;;;;;22.98;33.39;100450.31;10525624;28;20040;-71
2022/07/06 16:05:15;;;;;;;1.48;0.47;;;;;;;22.99;33.17;100443.09;10545514;28;20436;-70
2022/07/06 16:10:17;;;;;;;1.15;0.43;;;;;;;23.51;32.24;100436.34;10545335;28;20397;-71
2022/07/06 16:15:20;;;;;;;2.17;0.50;;;;;;;23.06;32.42;100429.09;10545815;28;20071;-73
2022/07/06 16:20:22;;;;;;;1.48;0.60;;;;;;;23.10;32.67;100427.03;10543334;28;20044;-73
2022/07/06 16:25:25;;;;;;;2.03;0.50;;;;;;;22.57;33.23;100422.09;10543607;28;20055;-72
2022/07/06 16:30:27;;;;;;;1.80;0.43;;;;;;;22.63;33.23;100423.47;10507914;28;20044;-72
2022/07/06 16:35:30;;;;;;;2.17;0.45;;;;;;;22.76;33.49;100426.09;10544918;28;20509;-73
2022/07/06 16:40:31;;;;;;;1.45;0.40;;;;;;;22.52;33.42;100420.75;10543303;28;20046;-72
2022/07/06 16:45:33;;;;;;;1.90;0.45;;;;;;;22.61;33.09;100418.22;10545581;28;20044;-73
2022/07/06 16:50:36;;;;;;;2.75;0.60;;;;;;;22.22;33.62;100411.34;10544130;28;20409;-73
2022/07/06 16:55:38;;;;;;;0.70;0.20;;;;;;;21.84;34.05;100414.16;10528092;28;20054;-73
2022/07/06 17:00:40;;;;;;;1.67;0.63;;;;;;;21.48;33.81;100410.47;10526530;28;20046;-72
2022/07/06 17:05:42;;;;;;;0.82;0.40;;;;;;;21.48;33.73;100410.47;10544012;28;20055;-72
2022/07/06 17:10:43;;;;;;;1.05;0.40;;;;;;;21.19;34.55;100403.63;10543178;28;20050;-72
2022/07/06 17:15:45;;;;;;;1.80;0.50;;;;;;;20.99;34.97;100413.03;10526270;28;20052;-72
2022/07/06 17:20:55;;;;;;;1.98;0.52;;;;;;;20.85;35.01;100417.53;10527598;28;20040;-72
2022/07/06 17:25:57;;;;;;;2.15;0.40;;;;;;;20.87;35.01;100420.06;10543178;28;20048;-72
2022/07/06 17:30:59;;;;;;;3.20;0.70;;;;;;;20.79;35.32;100412.56;10543423;28;20060;-73
2022/07/06 17:36:01;;;;;;;0.80;0.40;;;;;;;20.79;35.28;100409.91;10542883;28;20044;-73
2022/07/06 17:41:03;;;;;;;1.05;0.40;;;;;;;20.58;35.69;100416.69;10546150;28;20047;-73
2022/07/06 17:46:05;;;;;;;2.45;0.40;;;;;;;20.38;35.99;100418.00;10476955;22;20071;-71
2022/07/06 17:51:07;;;;;;;1.45;0.60;;;;;;;20.49;36.50;100428.84;10460675;28;20448;-71
2022/07/06 17:56:09;;;;;;;2.65;0.60;;;;;;;20.46;36.54;100426.38;10462718;28;20548;-72
2022/07/06 18:01:11;;;;;;;1.30;0.40;;;;;;;20.53;36.26;100430.34;10447548;28;20071;-73
2022/07/06 18:06:13;;;;;;;4.10;0.50;;;;;;;20.41;36.75;100442.69;10450475;28;20041;-72
2022/07/06 18:11:15;;;;;;;2.35;0.30;;;;;;;20.55;36.69;100431.13;10469697;28;20041;-71
2022/07/06 18:16:17;;;;;;;3.72;0.80;;;;;;;20.25;36.72;100428.63;10465976;28;20132;-72
2022/07/06 18:21:19;;;;;;;4.00;0.60;;;;;;;20.23;37.16;100433.25;10467145;28;20047;-70
2022/07/06 18:26:21;;;;;;;1.38;0.50;;;;;;;20.09;37.09;100436.78;10448907;28;20136;-71
2022/07/06 18:31:23;;;;;;;1.50;0.65;;;;;;;20.17;37.33;100430.94;10447448;28;20387;-71
2022/07/06 18:36:28;;;;;;;0.90;0.30;;;;;;;19.85;37.25;100425.03;10465381;28;20067;-70
2022/07/06 18:41:30;;;;;;;2.00;0.50;;;;;;;19.89;37.90;100434.56;10446732;28;20043;-71
2022/07/06 18:46:32;;;;;;;1.80;0.40;;;;;;;19.80;38.18;100432.47;10446157;28;20045;-71
2022/07/06 18:51:37;;;;;;;2.35;0.65;;;;;;;19.73;38.58;100428.47;10463800;28;20451;-71
2022/07/06 18:56:39;;;;;;;1.20;0.50;;;;;;;19.55;38.44;100425.13;10464273;28;20037;-71
2022/07/06 19:01:40;;;;;;;1.60;0.47;;;;;;;19.61;38.63;100422.97;10464763;28;20111;-72
2022/07/06 19:06:42;;;;;;;2.88;0.60;;;;;;;19.74;37.88;100430.19;10463867;28;20047;-71
2022/07/06 19:11:44;;;;;;;2.20;0.40;;;;;;;19.62;38.52;100446.03;10463910;28;20487;-71
2022/07/06 19:16:45;;;;;;;2.63;0.43;;;;;;;19.51;38.49;100451.13;10464241;28;20043;-71
2022/07/06 19:21:47;;;;;;;1.77;0.50;;;;;;;19.40;38.50;100451.81;10464278;28;20102;-71
2022/07/06 19:26:49;;;;;;;2.17;0.45;;;;;;;19.34;38.37;100453.97;10446807;28;20087;-70
2022/07/06 19:31:51;;;;;;;3.28;0.60;;;;;;;19.45;38.24;100454.19;10445844;28;20119;-70
2022/07/06 19:36:53;;;;;;;1.13;0.40;;;;;;;19.83;38.17;100458.94;10462730;28;20056;-71
2022/07/06 19:41:55;;;;;;;1.70;0.50;;;;;;;19.55;39.27;100460.66;10463464;28;20095;-71
2022/07/06 19:46:57;;;;;;;0.50;0.30;;;;;;;19.58;39.07;100462.28;10463516;28;20076;-71
2022/07/06 19:51:59;;;;;;;1.27;0.45;;;;;;;19.57;39.18;100466.75;10447219;28;20517;-71
2022/07/06 19:57:05;;;;;;;1.85;0.35;;;;;;;19.38;40.09;100463.50;10447622;28;20052;-71
2022/07/06 20:02:07;;;;;;;1.13;0.52;;;;;;;19.13;40.65;100465.00;10446053;28;20048;-70
2022/07/06 20:07:09;;;;;;;1.05;0.38;;;;;;;19.16;40.35;100462.13;10445159;28;20052;-70
2022/07/06 20:12:11;;;;;;;1.67;0.40;;;;;;;19.08;40.19;100475.09;10445404;28;20449;-70
2022/07/06 20:17:12;;;;;;;3.17;0.50;;;;;;;18.87;40.66;100463.06;10461408;28;20086;-70
2022/07/06 20:22:14;;;;;;;1.95;0.35;;;;;;;18.77;41.03;100461.84;10443083;28;20049;-70
2022/07/06 20:27:16;;;;;;;1.35;0.43;;;;;;;18.78;40.98;100474.25;10461829;28;20483;-70
2022/07/06 20:32:18;;;;;;;1.00;0.30;;;;;;;18.69;41.03;100461.44;10446558;28;20556;-70
2022/07/06 20:37:20;;;;;;;1.48;0.40;;;;;;;18.57;41.33;100466.53;10444413;28;20053;-69
2022/07/06 20:42:22;;;;;;;0.85;0.30;;;;;;;18.48;41.44;100460.88;10462698;28;20119;-70
2022/07/06 20:47:24;;;;;;;1.13;0.52;;;;;;;18.45;41.89;100461.03;10443892;28;20469;-69
2022/07/06 20:52:26;;;;;;;0.98;0.32;;;;;;;18.38;41.66;100455.22;10461828;28;20457;-70
2022/07/06 20:57:27;;;;;;;3.17;0.60;;;;;;;18.34;42.05;100453.69;10462550;28;20048;-69
2022/07/06 21:02:30;;;;;;;1.63;0.45;;;;;;;18.17;43.33;100462.63;10442745;28;20041;-69
2022/07/06 21:07:32;;;;;;;2.40;0.20;;;;;;;18.17;42.32;100464.44;10442830;28;20116;-69
2022/07/06 21:12:33;;;;;;;1.05;0.32;;;;;;;18.15;41.98;100461.88;10460408;28;20116;-69
2022/07/06 21:17:35;;;;;;;2.53;0.40;;;;;;;18.18;41.89;100459.00;10459050;28;20056;-68
2022/07/06 21:22:37;;;;;;;0.38;0.30;;;;;;;18.07;41.97;100464.94;10459370;28;20495;-69
2022/07/06 21:27:38;;;;;;;1.02;0.40;;;;;;;18.02;42.49;100468.81;10440656;28;20057;-68
2022/07/06 21:32:40;;;;;;;2.90;0.40;;;;;;;18.00;42.21;100460.91;10458888;28;20037;-69
2022/07/06 21:37:42;;;;;;;2.22;0.30;;;;;;;17.90;42.85;100467.69;10466380;28;20391;-70
2022/07/06 21:42:44;;;;;;;3.25;0.35;;;;;;;17.96;42.03;100450.53;10467056;28;20123;-70
2022/07/06 21:47:45;;;;;;;1.13;0.40;;;;;;;17.97;42.07;100450.44;10467021;28;20051;-69
2022/07/06 21:52:47;;;;;;;0.85;0.25;;;;;;;17.82;42.70;100454.81;10466414;28;20124;-70
2022/07/06 21:57:49;;;;;;;1.33;0.47;;;;;;;17.71;43.45;100456.28;10449560;28;20065;-69
2022/07/06 22:02:51;;;;;;;1.30;0.25;;;;;;;17.56;43.41;100456.19;10448882;28;20059;-69
2022/07/06 22:07:53;;;;;;;1.77;0.43;;;;;;;17.66;43.47;100448.56;10466232;28;20048;-69
2022/07/06 22:12:54;;;;;;;0.80;0.35;;;;;;;17.34;44.02;100455.63;10465092;28;20041;-69
2022/07/06 22:17:56;;;;;;;0.73;0.20;;;;;;;17.23;44.47;100460.66;10465430;28;20464;-69
2022/07/06 22:22:58;;;;;;;1.30;0.40;;;;;;;17.25;44.60;100450.81;10466470;28;20128;-69
2022/07/06 22:28:00;;;;;;;0.75;0.50;;;;;;;17.19;44.90;100448.47;10464939;28;20051;-69
2022/07/06 22:33:02;;;;;;;0.82;0.35;;;;;;;17.14;45.44;100448.72;10447263;28;20045;-70
2022/07/06 22:38:04;;;;;;;2.28;0.60;;;;;;;16.90;46.30;100453.47;10465128;28;20045;-69
2022/07/06 22:43:05;;;;;;;0.98;0.32;;;;;;;16.56;48.18;100446.34;10446762;28;20037;-69
2022/07/06 22:48:07;;;;;;;0.93;0.30;;;;;;;16.37;47.95;100449.03;10463918;28;20410;-70
2022/07/06 22:53:09;;;;;;;0.93;0.40;;;;;;;16.26;48.87;100440.75;10446559;28;20047;-69
2022/07/06 22:58:11;;;;;;;2.00;0.57;;;;;;;16.30;48.22;100437.88;10463848;28;20044;-69
2022/07/06 23:03:13;;;;;;;2.47;0.50;;;;;;;16.23;48.33;100439.09;10445203;28;20056;-69
2022/07/06 23:08:16;;;;;;;1.58;0.47;;;;;;;16.21;48.13;100435.69;10463463;28;20048;-68
2022/07/06 23:13:18;;;;;;;1.83;0.47;;;;;;;16.15;48.29;100442.13;10464182;28;20049;-70
2022/07/06 23:18:20;;;;;;;2.55;0.60;;;;;;;16.12;48.33;100436.13;10464072;28;20071;-69
2022/07/06 23:23:22;;;;;;;2.72;0.30;;;;;;;16.15;47.95;100441.25;10463885;28;20037;-69
2022/07/06 23:28:24;;;;;;;1.23;0.30;;;;;;;15.88;48.97;100433.69;10446228;28;20041;-69
2022/07/06 23:33:26;;;;;;;3.28;0.40;;;;;;;15.88;49.09;100431.03;10463058;28;20052;-69